createdAt,value
2022-12-01T00:01:08.003Z,-9.01
2022-12-01T00:03:39.362Z,-8.83
2022-12-01T00:06:14.671Z,-8.77
2022-12-01T00:09:06.997Z,-8.44
2022-12-01T00:11:37.402Z,-8.26
2022-12-01T00:14:08.970Z,-8.23
2022-12-01T00:16:41.373Z,-8.16
2022-12-01T00:19:12.054Z,-7.90
2022-12-01T00:21:44.374Z,-8.01
2022-12-01T00:24:15.288Z,-7.96
2022-12-01T00:26:45.891Z,-7.91
2022-12-01T00:29:16.569Z,-7.94
2022-12-01T00:31:47.306Z,-7.99
2022-12-01T00:34:25.393Z,-7.88
2022-12-01T00:36:57.660Z,-7.61
2022-12-01T00:39:28.289Z,-7.27
2022-12-01T00:41:58.921Z,-6.76
2022-12-01T00:44:29.558Z,-6.60
2022-12-01T00:47:00.199Z,-6.78
2022-12-01T00:49:30.889Z,-6.82
2022-12-01T00:52:03.198Z,-6.97
2022-12-01T00:54:34.540Z,-7.29
2022-12-01T00:57:05.311Z,-7.46
2022-12-01T00:59:36.149Z,-7.57
2022-12-01T01:02:08.018Z,-7.55
2022-12-01T01:04:39.544Z,-7.64
2022-12-01T01:07:12.086Z,-7.21
2022-12-01T01:09:44.269Z,-7.21
2022-12-01T01:12:14.893Z,-7.43
2022-12-01T01:14:45.635Z,-7.22
2022-12-01T01:17:16.314Z,-7.31
2022-12-01T01:19:47.321Z,-7.28
2022-12-01T01:22:19.890Z,-7.26
2022-12-01T01:24:50.543Z,-7.34
2022-12-01T01:27:21.315Z,-7.44
2022-12-01T01:29:52.014Z,-7.19
2022-12-01T01:32:22.650Z,-6.99
2022-12-01T01:34:53.319Z,-6.87
2022-12-01T01:37:25.791Z,-7.21
2022-12-01T01:39:56.509Z,-7.04
2022-12-01T01:42:27.199Z,-7.16
2022-12-01T01:44:59.936Z,-7.23
2022-12-01T01:47:34.713Z,-7.07
2022-12-01T01:50:11.291Z,-7.13
2022-12-01T01:52:48.073Z,-7.09
2022-12-01T01:55:19.522Z,-7.29
2022-12-01T01:57:50.472Z,-7.71
2022-12-01T02:00:22.995Z,-7.67
2022-12-01T02:02:54.496Z,-7.63
2022-12-01T02:05:28.315Z,-7.72
2022-12-01T02:08:02.939Z,-8.07
2022-12-01T02:10:50.771Z,-7.79
2022-12-01T02:13:36.148Z,-7.77
2022-12-01T02:16:15.364Z,-7.59
2022-12-01T02:18:58.513Z,-7.50
2022-12-01T02:21:39.133Z,-7.77
2022-12-01T02:24:48.346Z,-7.75
2022-12-01T02:27:31.984Z,-8.09
2022-12-01T02:30:09.811Z,-7.73
2022-12-01T02:32:55.724Z,-7.83
2022-12-01T02:35:35.092Z,-7.79
2022-12-01T02:38:16.296Z,-7.97
2022-12-01T02:40:54.106Z,-8.48
2022-12-01T02:43:32.843Z,-8.25
2022-12-01T02:46:13.519Z,-8.07
2022-12-01T02:48:51.312Z,-7.81
2022-12-01T02:51:25.875Z,-7.84
2022-12-01T02:53:58.187Z,-7.89
2022-12-01T02:56:29.138Z,-7.86
2022-12-01T02:58:59.826Z,-7.98
2022-12-01T03:01:47.627Z,-8.03
2022-12-01T03:04:40.026Z,-8.08
2022-12-01T03:07:25.075Z,-8.07
2022-12-01T03:10:04.782Z,-8.32
2022-12-01T03:12:41.097Z,-8.43
2022-12-01T03:15:21.032Z,-8.63
2022-12-01T03:17:58.887Z,-8.45
2022-12-01T03:20:37.021Z,-8.36
2022-12-01T03:23:11.727Z,-8.55
2022-12-01T03:25:47.430Z,-8.53
2022-12-01T03:28:23.228Z,-8.55
2022-12-01T03:30:58.374Z,-9.10
2022-12-01T03:33:34.123Z,-8.88
2022-12-01T03:36:11.003Z,-8.88
2022-12-01T03:38:46.761Z,-8.78
2022-12-01T03:41:21.467Z,-8.60
2022-12-01T03:43:58.476Z,-8.68
2022-12-01T03:46:37.108Z,-8.71
2022-12-01T03:49:09.702Z,-8.42
2022-12-01T03:51:54.065Z,-8.48
2022-12-01T03:55:27.543Z,-8.47
2022-12-01T03:58:14.160Z,-8.42
2022-12-01T04:01:00.814Z,-8.55
2022-12-01T04:03:43.419Z,-8.56
2022-12-01T04:06:33.100Z,-9.18
2022-12-01T04:09:19.785Z,-8.42
2022-12-01T04:12:07.594Z,-8.47
2022-12-01T04:14:38.430Z,-8.47
2022-12-01T04:17:09.282Z,-8.34
2022-12-01T04:19:39.901Z,-8.26
2022-12-01T04:22:10.609Z,-8.31
2022-12-01T04:24:43.107Z,-8.25
2022-12-01T04:27:13.920Z,-8.20
2022-12-01T04:29:44.790Z,-8.08
2022-12-01T04:32:16.014Z,-8.16
2022-12-01T04:34:46.787Z,-8.21
2022-12-01T04:37:17.603Z,-8.02
2022-12-01T04:39:50.163Z,-8.07
2022-12-01T04:42:21.030Z,-8.18
2022-12-01T04:44:51.768Z,-8.12
2022-12-01T04:47:22.456Z,-8.07
2022-12-01T04:49:53.619Z,-8.25
2022-12-01T04:52:24.335Z,-8.40
2022-12-01T04:54:56.730Z,-8.40
2022-12-01T04:57:27.986Z,-8.46
2022-12-01T04:59:58.763Z,-8.42
2022-12-01T05:02:29.567Z,-8.55
2022-12-01T05:05:00.479Z,-8.69
2022-12-01T05:07:31.353Z,-8.59
2022-12-01T05:10:03.827Z,-8.66
2022-12-01T05:12:34.651Z,-8.51
2022-12-01T05:15:05.494Z,-8.68
2022-12-01T05:17:37.233Z,-8.65
2022-12-01T05:20:31.863Z,-8.68
2022-12-01T05:23:06.451Z,-8.80
2022-12-01T05:25:39.774Z,-8.82
2022-12-01T05:28:10.573Z,-8.91
2022-12-01T05:30:41.705Z,-9.01
2022-12-01T05:33:12.583Z,-9.15
2022-12-01T05:35:43.332Z,-9.38
2022-12-01T05:38:14.798Z,-9.40
2022-12-01T05:40:52.520Z,-9.63
2022-12-01T05:43:29.161Z,-9.32
2022-12-01T05:46:00.909Z,-9.23
2022-12-01T05:48:31.791Z,-9.26
2022-12-01T05:51:02.561Z,-9.27
2022-12-01T05:53:33.304Z,-9.27
2022-12-01T05:56:06.521Z,-9.18
2022-12-01T05:58:37.798Z,-9.42
2022-12-01T06:01:09.045Z,-9.53
2022-12-01T06:03:40.011Z,-9.55
2022-12-01T06:06:10.891Z,-9.52
2022-12-01T06:08:44.428Z,-9.61
2022-12-01T06:11:16.862Z,-9.49
2022-12-01T06:13:47.710Z,-9.46
2022-12-01T06:16:18.509Z,-9.59
2022-12-01T06:18:49.732Z,-9.60
2022-12-01T06:21:20.484Z,-9.62
2022-12-01T06:23:51.194Z,-9.87
2022-12-01T06:26:23.645Z,-9.79
2022-12-01T06:28:55.483Z,-9.90
2022-12-01T06:31:26.498Z,-9.92
2022-12-01T06:33:57.456Z,-9.93
2022-12-01T06:36:28.363Z,-9.92
2022-12-01T06:39:01.695Z,-9.92
2022-12-01T06:41:38.492Z,-9.90
2022-12-01T06:44:22.657Z,-9.98
2022-12-01T06:46:54.218Z,-10.02
2022-12-01T06:49:25.681Z,-10.00
2022-12-01T06:51:56.471Z,-9.92
2022-12-01T06:54:30.751Z,-9.92
2022-12-01T06:57:05.817Z,-9.91
2022-12-01T06:59:37.821Z,-9.75
2022-12-01T07:06:01.551Z,-10.04
2022-12-01T07:08:38.726Z,-10.07
2022-12-01T07:11:13.426Z,-10.17
2022-12-01T07:13:47.760Z,-10.32
2022-12-01T07:16:19.487Z,-10.35
2022-12-01T07:18:50.978Z,-10.15
2022-12-01T07:21:23.020Z,-10.11
2022-12-01T07:23:55.258Z,-10.13
2022-12-01T07:26:26.180Z,-10.21
2022-12-01T07:28:58.720Z,-10.30
2022-12-01T07:31:30.923Z,-10.25
2022-12-01T07:34:02.691Z,-10.20
2022-12-01T07:36:33.575Z,-10.20
2022-12-01T07:39:08.482Z,-10.05
2022-12-01T07:41:39.514Z,-10.05
2022-12-01T07:44:22.002Z,-10.01
2022-12-01T07:46:55.830Z,-10.03
2022-12-01T07:49:27.728Z,-10.13
2022-12-01T07:51:58.684Z,-10.06
2022-12-01T07:54:29.890Z,-10.11
2022-12-01T07:57:03.404Z,-10.02
2022-12-01T07:59:35.917Z,-9.95
2022-12-01T08:02:06.741Z,-9.96
2022-12-01T08:04:37.956Z,-9.92
2022-12-01T08:07:08.688Z,-9.96
2022-12-01T08:09:40.182Z,-10.02
2022-12-01T08:12:11.427Z,-10.02
2022-12-01T08:14:46.318Z,-10.16
2022-12-01T08:17:17.300Z,-9.87
2022-12-01T08:19:48.571Z,-9.96
2022-12-01T08:22:19.507Z,-9.90
2022-12-01T08:24:50.703Z,-9.98
2022-12-01T08:27:21.650Z,-9.90
2022-12-01T08:29:54.190Z,-9.82
2022-12-01T08:32:25.050Z,-9.79
2022-12-01T08:34:55.952Z,-9.90
2022-12-01T08:37:26.920Z,-9.88
2022-12-01T08:40:00.359Z,-9.57
2022-12-01T08:42:31.172Z,-9.56
2022-12-01T08:45:17.428Z,-9.78
2022-12-01T08:49:01.087Z,-9.88
2022-12-01T08:51:33.824Z,-9.84
2022-12-01T08:54:04.781Z,-9.99
2022-12-01T08:56:38.823Z,-9.87
2022-12-01T08:59:10.790Z,-9.95
2022-12-01T09:01:55.772Z,-10.04
2022-12-01T09:04:27.934Z,-10.24
2022-12-01T09:07:00.021Z,-9.94
2022-12-01T09:09:32.487Z,-9.99
2022-12-01T09:12:04.819Z,-9.96
2022-12-01T09:14:39.422Z,-9.80
2022-12-01T09:17:15.986Z,-9.91
2022-12-01T09:19:47.442Z,-9.96
2022-12-01T09:22:19.630Z,-9.95
2022-12-01T09:24:55.685Z,-9.74
2022-12-01T09:27:30.920Z,-9.65
2022-12-01T09:30:01.733Z,-9.81
2022-12-01T09:32:39.914Z,-9.91
2022-12-01T09:35:19.588Z,-10.08
2022-12-01T09:37:54.990Z,-9.91
2022-12-01T09:40:34.994Z,-10.21
2022-12-01T09:43:16.188Z,-9.93
2022-12-01T09:45:51.270Z,-9.91
2022-12-01T09:48:30.153Z,-10.09
2022-12-01T09:51:06.903Z,-10.15
2022-12-01T09:53:40.156Z,-10.01
2022-12-01T09:56:25.634Z,-10.13
2022-12-01T09:59:00.552Z,-10.00
2022-12-01T10:01:42.121Z,-10.01
2022-12-01T10:04:20.629Z,-9.86
2022-12-01T10:07:01.894Z,-9.94
2022-12-01T10:09:42.103Z,-10.19
2022-12-01T10:12:17.739Z,-9.95
2022-12-01T10:14:51.849Z,-10.71
2022-12-01T10:17:33.871Z,-9.88
2022-12-01T10:20:14.134Z,-9.94
2022-12-01T10:23:23.465Z,-9.75
2022-12-01T10:26:01.492Z,-9.64
2022-12-01T10:29:00.691Z,-9.66
2022-12-01T10:31:38.910Z,-9.59
2022-12-01T10:34:18.476Z,-9.93
2022-12-01T10:36:53.257Z,-9.72
2022-12-01T10:39:30.943Z,-9.76
2022-12-01T10:42:07.521Z,-9.80
2022-12-01T10:44:41.951Z,-9.89
2022-12-01T10:47:45.033Z,-9.76
2022-12-01T10:50:59.095Z,-9.83
2022-12-01T10:53:37.476Z,-9.93
2022-12-01T10:56:15.659Z,-9.72
2022-12-01T10:58:53.222Z,-9.68
2022-12-01T11:01:31.889Z,-9.79
2022-12-01T11:04:08.708Z,-9.88
2022-12-01T11:06:46.017Z,-9.86
2022-12-01T11:09:26.428Z,-9.99
2022-12-01T11:12:01.643Z,-10.05
2022-12-01T11:14:43.836Z,-9.87
2022-12-01T11:17:30.353Z,-10.01
2022-12-01T11:20:35.176Z,-9.82
2022-12-01T11:23:32.708Z,-9.71
2022-12-01T11:26:10.880Z,-9.82
2022-12-01T11:28:47.377Z,-9.77
2022-12-01T11:31:19.830Z,-9.66
2022-12-01T11:33:58.543Z,-9.76
2022-12-01T11:36:34.749Z,-9.74
2022-12-01T11:39:08.065Z,-9.73
2022-12-01T11:41:43.664Z,-9.77
2022-12-01T11:44:54.533Z,-9.85
2022-12-01T11:47:26.804Z,-10.26
2022-12-01T11:49:59.166Z,-9.81
2022-12-01T11:52:34.996Z,-9.64
2022-12-01T11:55:24.901Z,-9.57
2022-12-01T11:57:59.207Z,-9.65
2022-12-01T12:00:33.082Z,-9.81
2022-12-01T12:03:22.398Z,-9.84
2022-12-01T12:09:45.045Z,-9.95
2022-12-01T12:12:33.391Z,-9.80
2022-12-01T12:15:19.885Z,-9.82
2022-12-01T12:18:07.208Z,-9.93
2022-12-01T12:20:53.859Z,-10.34
2022-12-01T12:23:58.465Z,-10.05
2022-12-01T12:26:31.994Z,-10.01
2022-12-01T12:29:20.834Z,-9.81
2022-12-01T12:32:07.734Z,-9.99
2022-12-01T12:34:52.136Z,-9.75
2022-12-01T12:37:29.315Z,-9.83
2022-12-01T12:40:26.454Z,-9.82
2022-12-01T12:43:25.536Z,-9.76
2022-12-01T12:46:12.302Z,-9.75
2022-12-01T12:49:22.450Z,-10.24
2022-12-01T12:51:55.963Z,-9.81
2022-12-01T12:54:32.310Z,-10.02
2022-12-01T12:57:10.988Z,-10.55
2022-12-01T12:59:48.687Z,-10.06
2022-12-01T13:02:25.038Z,-10.29
2022-12-01T13:05:05.615Z,-10.11
2022-12-01T13:07:44.501Z,-9.98
2022-12-01T13:10:25.832Z,-9.91
2022-12-01T13:13:01.473Z,-10.23
2022-12-01T13:15:33.963Z,-10.23
2022-12-01T13:18:19.963Z,-10.35
2022-12-01T13:20:54.096Z,-10.04
2022-12-01T13:23:28.707Z,-9.99
2022-12-01T13:26:06.819Z,-9.96
2022-12-01T13:28:43.819Z,-9.92
2022-12-01T13:31:16.767Z,-9.91
2022-12-01T13:33:59.603Z,-10.04
2022-12-01T13:36:48.644Z,-10.20
2022-12-01T13:39:22.614Z,-10.11
2022-12-01T13:42:05.493Z,-10.20
2022-12-01T13:44:42.489Z,-10.27
2022-12-01T13:47:35.976Z,-9.99
2022-12-01T13:50:50.603Z,-10.00
2022-12-01T13:53:42.035Z,-9.95
2022-12-01T13:56:41.151Z,-9.92
2022-12-01T13:59:42.593Z,-9.75
2022-12-01T14:02:31.854Z,-9.81
2022-12-01T14:05:48.556Z,-9.91
2022-12-01T14:08:24.047Z,-9.93
2022-12-01T14:11:02.742Z,-10.08
2022-12-01T14:13:46.210Z,-10.06
2022-12-01T14:16:18.507Z,-10.03
2022-12-01T14:18:54.348Z,-10.23
2022-12-01T14:21:48.190Z,-10.00
2022-12-01T14:24:29.424Z,-10.13
2022-12-01T14:27:02.240Z,-10.07
2022-12-01T14:29:39.378Z,-10.17
2022-12-01T14:32:29.433Z,-10.26
2022-12-01T14:35:02.671Z,-10.34
2022-12-01T14:37:43.414Z,-10.38
2022-12-01T14:40:27.836Z,-10.76
2022-12-01T14:43:19.193Z,-10.59
2022-12-01T14:46:02.413Z,-10.44
2022-12-01T14:48:43.251Z,-10.46
2022-12-01T14:51:22.455Z,-10.72
2022-12-01T14:53:55.120Z,-10.66
2022-12-01T14:56:27.303Z,-10.75
2022-12-01T14:59:01.790Z,-10.80
2022-12-01T15:01:36.719Z,-10.77
2022-12-01T15:04:09.713Z,-10.93
2022-12-01T15:06:41.252Z,-10.69
2022-12-01T15:09:34.419Z,-10.74
2022-12-01T15:12:08.694Z,-10.60
2022-12-01T15:14:49.393Z,-10.70
2022-12-01T15:17:33.509Z,-10.72
2022-12-01T15:20:08.224Z,-10.50
2022-12-01T15:22:39.837Z,-10.31
2022-12-01T15:25:16.464Z,-10.37
2022-12-01T15:28:05.727Z,-10.23
2022-12-01T15:30:45.743Z,-10.27
2022-12-01T15:33:20.618Z,-10.18
2022-12-01T15:38:49.970Z,-10.30
2022-12-01T15:41:30.988Z,-10.26
2022-12-01T15:44:04.462Z,-10.23
2022-12-01T15:46:37.493Z,-10.13
2022-12-01T15:49:17.458Z,-10.09
2022-12-01T15:51:49.308Z,-10.00
2022-12-01T15:54:23.832Z,-9.93
2022-12-01T15:56:56.854Z,-9.93
2022-12-01T15:59:38.432Z,-9.84
2022-12-01T16:02:31.022Z,-9.88
2022-12-01T16:05:07.929Z,-9.85
2022-12-01T16:10:33.136Z,-9.92
2022-12-01T16:13:42.845Z,-10.04
2022-12-01T16:16:32.901Z,-10.20
2022-12-01T16:19:06.555Z,-10.07
2022-12-01T16:21:45.067Z,-9.92
2022-12-01T16:24:23.372Z,-9.86
2022-12-01T16:26:56.349Z,-10.12
2022-12-01T16:29:29.301Z,-9.94
2022-12-01T16:32:20.141Z,-10.07
2022-12-01T16:34:54.201Z,-10.16
2022-12-01T16:37:25.496Z,-10.18
2022-12-01T16:39:56.423Z,-10.22
2022-12-01T16:42:27.577Z,-10.16
2022-12-01T16:44:58.535Z,-10.13
2022-12-01T16:47:32.290Z,-10.23
2022-12-01T16:50:04.780Z,-10.25
2022-12-01T16:52:50.561Z,-10.29
2022-12-01T16:55:42.095Z,-10.40
2022-12-01T16:58:13.104Z,-10.37
2022-12-01T17:00:43.936Z,-10.37
2022-12-01T17:03:16.614Z,-10.58
2022-12-01T17:05:49.315Z,-10.54
2022-12-01T17:08:20.364Z,-10.60
2022-12-01T17:10:52.993Z,-10.59
2022-12-01T17:13:25.538Z,-10.42
2022-12-01T17:16:00.971Z,-10.50
2022-12-01T17:18:34.753Z,-10.62
2022-12-01T17:21:10.273Z,-10.66
2022-12-01T17:23:41.996Z,-10.57
2022-12-01T17:26:14.978Z,-10.61
2022-12-01T17:28:45.977Z,-10.64
2022-12-01T17:31:17.460Z,-10.69
2022-12-01T17:33:48.223Z,-10.61
2022-12-01T17:36:20.966Z,-10.51
2022-12-01T17:38:54.566Z,-10.49
2022-12-01T17:41:26.364Z,-10.54
2022-12-01T17:43:58.856Z,-10.56
2022-12-01T17:46:30.421Z,-10.63
2022-12-01T17:49:01.704Z,-10.60
2022-12-01T17:51:34.082Z,-10.71
2022-12-01T17:54:04.788Z,-10.68
2022-12-01T17:56:36.158Z,-10.76
2022-12-01T17:59:07.263Z,-10.74
2022-12-01T18:01:39.025Z,-10.63
2022-12-01T18:04:10.054Z,-10.62
2022-12-01T18:06:42.823Z,-10.76
2022-12-01T18:09:13.678Z,-10.94
2022-12-01T18:11:44.395Z,-11.02
2022-12-01T18:14:18.548Z,-11.11
2022-12-01T18:16:49.213Z,-11.15
2022-12-01T18:19:20.098Z,-11.09
2022-12-01T18:21:53.105Z,-11.16
2022-12-01T18:24:24.013Z,-11.15
2022-12-01T18:26:57.220Z,-11.17
2022-12-01T18:29:30.802Z,-11.36
2022-12-01T18:32:04.909Z,-11.30
2022-12-01T18:34:35.779Z,-11.44
2022-12-01T18:37:08.382Z,-11.36
2022-12-01T18:39:39.488Z,-11.34
2022-12-01T18:42:10.586Z,-11.31
2022-12-01T18:44:44.577Z,-11.02
2022-12-01T18:47:15.421Z,-11.12
2022-12-01T18:49:46.381Z,-11.24
2022-12-01T18:52:18.889Z,-11.56
2022-12-01T18:54:50.403Z,-11.43
2022-12-01T18:57:21.350Z,-11.57
2022-12-01T18:59:55.114Z,-11.54
2022-12-01T19:02:26.045Z,-11.56
2022-12-01T19:04:57.151Z,-11.58
2022-12-01T19:07:30.140Z,-11.62
2022-12-01T19:10:03.988Z,-11.55
2022-12-01T19:12:40.613Z,-11.50
2022-12-01T19:15:12.969Z,-11.36
2022-12-01T19:17:44.129Z,-11.25
2022-12-01T19:20:16.137Z,-11.30
2022-12-01T19:22:48.651Z,-11.08
2022-12-01T19:25:19.409Z,-11.15
2022-12-01T19:27:51.998Z,-10.93
2022-12-01T19:30:23.228Z,-10.84
2022-12-01T19:32:53.802Z,-10.75
2022-12-01T19:35:26.875Z,-10.87
2022-12-01T19:37:59.374Z,-10.95
2022-12-01T19:40:30.351Z,-10.96
2022-12-01T19:43:04.065Z,-11.01
2022-12-01T19:45:36.473Z,-10.97
2022-12-01T19:48:07.633Z,-10.99
2022-12-01T19:50:38.812Z,-11.11
2022-12-01T19:53:14.051Z,-11.20
2022-12-01T19:55:44.862Z,-11.13
2022-12-01T19:58:15.714Z,-11.12
2022-12-01T20:00:47.180Z,-11.23
2022-12-01T20:03:20.209Z,-11.24
2022-12-01T20:05:54.333Z,-11.17
2022-12-01T20:08:26.914Z,-11.37
2022-12-01T20:10:58.214Z,-11.34
2022-12-01T20:13:28.943Z,-11.35
2022-12-01T20:16:05.609Z,-11.44
2022-12-01T20:18:36.840Z,-11.42
2022-12-01T20:21:15.953Z,-11.69
2022-12-01T20:23:49.760Z,-11.45
2022-12-01T20:26:26.152Z,-11.56
2022-12-01T20:29:03.185Z,-11.74
2022-12-01T20:31:35.604Z,-11.52
2022-12-01T20:34:08.648Z,-11.64
2022-12-01T20:36:42.573Z,-11.43
2022-12-01T20:39:16.593Z,-11.79
2022-12-01T20:41:48.034Z,-12.11
2022-12-01T20:44:22.545Z,-11.44
2022-12-01T20:47:04.850Z,-11.37
2022-12-01T20:49:35.762Z,-11.33
2022-12-01T20:52:06.722Z,-11.23
2022-12-01T20:54:42.428Z,-11.24
2022-12-01T20:57:13.224Z,-11.20
2022-12-01T20:59:44.009Z,-11.34
2022-12-01T21:02:14.793Z,-11.24
2022-12-01T21:04:45.823Z,-11.31
2022-12-01T21:07:16.605Z,-11.45
2022-12-01T21:09:49.306Z,-11.43
2022-12-01T21:12:36.997Z,-11.50
2022-12-01T21:15:23.224Z,-11.98
2022-12-01T21:18:01.952Z,-12.14
2022-12-01T21:20:34.633Z,-12.31
2022-12-01T21:23:12.182Z,-12.35
2022-12-01T21:25:46.077Z,-12.53
2022-12-01T21:28:21.270Z,-12.16
2022-12-01T21:30:53.714Z,-12.41
2022-12-01T21:33:30.807Z,-12.30
2022-12-01T21:36:03.156Z,-12.54
2022-12-01T21:38:35.436Z,-12.83
2022-12-01T21:41:18.525Z,-12.80
2022-12-01T21:43:49.369Z,-12.82
2022-12-01T21:46:21.232Z,-12.68
2022-12-01T21:48:53.298Z,-12.65
2022-12-01T21:51:25.653Z,-12.95
2022-12-01T21:53:58.618Z,-12.75
2022-12-01T21:56:32.538Z,-12.56
2022-12-01T21:59:16.308Z,-12.44
2022-12-01T22:01:47.226Z,-12.24
2022-12-01T22:04:23.858Z,-12.21
2022-12-01T22:06:56.516Z,-12.38
2022-12-01T22:09:29.117Z,-11.83
2022-12-01T22:12:13.644Z,-11.78
2022-12-01T22:14:44.534Z,-11.50
2022-12-01T22:17:22.413Z,-11.44
2022-12-01T22:19:59.750Z,-11.50
2022-12-01T22:22:31.549Z,-11.57
2022-12-01T22:25:04.656Z,-11.81
2022-12-01T22:27:39.296Z,-11.78
2022-12-01T22:30:20.397Z,-11.74
2022-12-01T22:32:58.531Z,-11.79
2022-12-01T22:35:31.796Z,-11.67
2022-12-01T22:38:16.914Z,-11.91
2022-12-01T22:40:56.528Z,-11.91
2022-12-01T22:43:44.135Z,-11.80
2022-12-01T22:46:23.425Z,-11.85
2022-12-01T22:48:56.076Z,-11.74
2022-12-01T22:51:32.700Z,-11.74
2022-12-01T22:54:25.850Z,-11.82
2022-12-01T22:57:08.193Z,-11.89
2022-12-01T22:59:43.131Z,-11.80
2022-12-01T23:02:22.308Z,-11.78
2022-12-01T23:04:57.931Z,-11.56
2022-12-01T23:07:34.821Z,-11.39
2022-12-01T23:10:12.341Z,-11.19
2022-12-01T23:12:43.381Z,-11.17
2022-12-01T23:15:32.616Z,-10.93
2022-12-01T23:18:12.800Z,-10.79
2022-12-01T23:20:44.456Z,-10.60
2022-12-01T23:23:18.072Z,-10.69
2022-12-01T23:25:50.155Z,-9.99
2022-12-01T23:28:21.747Z,-9.83
2022-12-01T23:30:57.317Z,-9.42
2022-12-01T23:33:31.147Z,-9.28
2022-12-01T23:36:05.039Z,-9.02
2022-12-01T23:38:40.149Z,-9.00
2022-12-01T23:41:15.407Z,-9.18
2022-12-01T23:43:48.033Z,-8.74
2022-12-01T23:46:23.544Z,-8.56
2022-12-01T23:48:57.192Z,-8.50
2022-12-01T23:51:33.655Z,-8.40
2022-12-01T23:54:11.318Z,-8.19
2022-12-01T23:56:42.301Z,-7.99
2022-12-01T23:59:15.448Z,-7.86
